Time;durP1;ratioP1;P1;durP2;ratioP2;P2;SDS_P1;SDS_P2;PMS_P1;PMS_P2;Temp;Humidity;BMP_temperature;BMP_pressure;BME280_temperature;BME280_humidity;BME280_pressure;Samples;Min_cycle;Max_cycle;Signal;HPM_P1;HPM_P2
2022/04/23 00:02:17;;;;;;;10.30;9.30;;;;;;;;;;5072504;28;20266;-85
2022/04/23 00:04:43;;;;;;;10.20;9.27;;;;;;;;;;5072727;28;20272;-83
2022/04/23 00:07:09;;;;;;;9.60;8.80;;;;;;;;;;5071658;28;20191;-85
2022/04/23 00:09:36;;;;;;;9.63;8.73;;;;;;;;;;5056130;28;20223;-82
2022/04/23 00:12:02;;;;;;;9.43;8.43;;;;;;;;;;5073083;28;20184;-85
2022/04/23 00:14:28;;;;;;;10.20;9.17;;;;;;;;;;5072025;28;20196;-85
2022/04/23 00:16:54;;;;;;;9.60;8.70;;;;;;;;;;5071608;28;20196;-84
2022/04/23 00:19:21;;;;;;;9.30;8.50;;;;;;;;;;5070911;28;20458;-84
2022/04/23 00:21:47;;;;;;;9.53;8.20;;;;;;;;;;5072665;28;20243;-86
2022/04/23 00:24:14;;;;;;;9.13;8.20;;;;;;;;;;5073436;28;20196;-85
2022/04/23 00:26:40;;;;;;;8.57;7.77;;;;;;;;;;5066956;28;20272;-84
2022/04/23 00:29:06;;;;;;;8.70;7.80;;;;;;;;;;5072389;28;20185;-84
2022/04/23 00:31:33;;;;;;;9.20;8.40;;;;;;;;;;5055478;28;20188;-84
2022/04/23 00:33:59;;;;;;;7.80;7.20;;;;;;;;;;5055801;28;20288;-85
2022/04/23 00:36:26;;;;;;;9.43;8.50;;;;;;;;;;5045698;28;20213;-82
2022/04/23 00:38:53;;;;;;;8.90;8.10;;;;;;;;;;5055171;28;20554;-86
2022/04/23 00:44:04;;;;;;;9.77;8.97;;;;;;;;;;5070318;28;20203;-84
2022/04/23 00:46:31;;;;;;;8.53;7.73;;;;;;;;;;5055280;28;20193;-85
2022/04/23 00:48:58;;;;;;;8.83;8.10;;;;;;;;;;5053248;28;20208;-83
2022/04/23 00:51:26;;;;;;;9.00;7.47;;;;;;;;;;5053270;28;20369;-83
2022/04/23 00:53:52;;;;;;;8.47;7.67;;;;;;;;;;5072079;28;20204;-84
2022/04/23 00:56:18;;;;;;;8.40;7.70;;;;;;;;;;5054753;28;20205;-85
2022/04/23 00:58:44;;;;;;;9.27;7.37;;;;;;;;;;5056098;28;20369;-84
2022/04/23 01:01:10;;;;;;;10.73;8.20;;;;;;;;;;5069618;28;21142;-83
2022/04/23 01:03:36;;;;;;;8.37;7.67;;;;;;;;;;5052925;28;20214;-84
2022/04/23 01:06:04;;;;;;;8.30;7.60;;;;;;;;;;5054543;28;20608;-84
2022/04/23 01:08:31;;;;;;;8.27;7.57;;;;;;;;;;5054841;28;20662;-84
2022/04/23 01:10:57;;;;;;;7.70;7.00;;;;;;;;;;5072663;28;20173;-84
2022/04/23 01:13:25;;;;;;;9.27;8.47;;;;;;;;;;5055209;28;20977;-85
2022/04/23 01:15:59;;;;;;;8.07;7.37;;;;;;;;;;5052140;28;20651;-86
2022/04/23 01:18:25;;;;;;;9.00;8.07;;;;;;;;;;5052039;28;21170;-85
2022/04/23 01:20:51;;;;;;;8.07;7.37;;;;;;;;;;5072481;28;20256;-85
2022/04/23 01:23:17;;;;;;;8.00;7.30;;;;;;;;;;5053865;28;20230;-84
2022/04/23 01:25:43;;;;;;;8.07;7.37;;;;;;;;;;5073026;28;20207;-85
2022/04/23 01:28:10;;;;;;;8.40;7.60;;;;;;;;;;5074955;28;20239;-85
2022/04/23 01:30:36;;;;;;;8.27;7.40;;;;;;;;;;5072006;28;20243;-85
2022/04/23 01:33:02;;;;;;;7.53;6.93;;;;;;;;;;5052365;28;20196;-85
2022/04/23 01:35:29;;;;;;;7.57;6.97;;;;;;;;;;5069832;28;20181;-84
2022/04/23 01:37:55;;;;;;;8.37;7.67;;;;;;;;;;5046038;28;20181;-84
2022/04/23 01:40:21;;;;;;;8.43;7.73;;;;;;;;;;5066677;28;20243;-84
2022/04/23 01:42:47;;;;;;;7.53;6.93;;;;;;;;;;5068386;28;20212;-84
2022/04/23 01:45:13;;;;;;;7.83;7.13;;;;;;;;;;5069020;28;20820;-86
2022/04/23 01:47:40;;;;;;;7.73;7.13;;;;;;;;;;5067457;28;20615;-85
2022/04/23 01:50:07;;;;;;;7.83;7.03;;;;;;;;;;5068282;28;20208;-85
2022/04/23 01:52:34;;;;;;;7.90;7.20;;;;;;;;;;5066595;28;20212;-86
2022/04/23 01:55:00;;;;;;;8.80;8.00;;;;;;;;;;5068226;28;20608;-85
2022/04/23 01:57:26;;;;;;;8.23;7.43;;;;;;;;;;5083509;28;20176;-85
2022/04/23 01:59:51;;;;;;;7.77;7.17;;;;;;;;;;5067646;28;20185;-84
2022/04/23 02:02:18;;;;;;;8.20;7.60;;;;;;;;;;5052421;28;20195;-85
2022/04/23 02:04:44;;;;;;;8.20;7.50;;;;;;;;;;5068012;28;20200;-85
2022/04/23 02:07:10;;;;;;;7.83;7.23;;;;;;;;;;5072324;28;20181;-85
2022/04/23 02:09:36;;;;;;;7.90;7.20;;;;;;;;;;5071101;28;20215;-85
2022/04/23 02:12:02;;;;;;;8.17;7.47;;;;;;;;;;5068798;28;20229;-85
2022/04/23 02:14:28;;;;;;;8.53;7.57;;;;;;;;;;5071761;28;20225;-85
2022/04/23 02:16:54;;;;;;;8.57;7.73;;;;;;;;;;5069608;28;20196;-84
2022/04/23 02:19:22;;;;;;;8.40;7.70;;;;;;;;;;5069292;28;20243;-84
2022/04/23 02:21:48;;;;;;;8.43;7.73;;;;;;;;;;5068842;28;20284;-85
2022/04/23 02:24:15;;;;;;;8.33;7.63;;;;;;;;;;5052817;28;20219;-85
2022/04/23 02:26:41;;;;;;;8.40;7.70;;;;;;;;;;5068373;28;20262;-85
2022/04/23 02:29:07;;;;;;;9.70;8.90;;;;;;;;;;5069480;28;20259;-85
2022/04/23 02:31:34;;;;;;;8.67;7.97;;;;;;;;;;5067942;28;20177;-83
2022/04/23 02:34:00;;;;;;;8.70;7.87;;;;;;;;;;5069761;28;20184;-85
2022/04/23 02:36:26;;;;;;;9.40;8.40;;;;;;;;;;5053839;28;20192;-83
2022/04/23 02:38:52;;;;;;;8.83;8.03;;;;;;;;;;5053040;28;20515;-84
2022/04/23 02:41:18;;;;;;;9.17;8.47;;;;;;;;;;5053232;28;20914;-85
2022/04/23 02:43:45;;;;;;;9.43;8.53;;;;;;;;;;5053400;28;20176;-86
2022/04/23 02:46:15;;;;;;;10.03;9.13;;;;;;;;;;5054765;28;20268;-85
2022/04/23 02:48:41;;;;;;;9.83;8.93;;;;;;;;;;5069313;28;20650;-84
2022/04/23 02:51:07;;;;;;;11.47;9.97;;;;;;;;;;5068372;28;20578;-82
2022/04/23 02:53:34;;;;;;;10.20;9.30;;;;;;;;;;5041224;28;20164;-85
2022/04/23 02:56:02;;;;;;;10.20;9.30;;;;;;;;;;5067741;28;20594;-85
2022/04/23 02:58:28;;;;;;;10.80;9.87;;;;;;;;;;5070133;28;20634;-84
2022/04/23 03:00:54;;;;;;;11.53;10.40;;;;;;;;;;5071973;28;20184;-85
2022/04/23 03:03:21;;;;;;;10.80;9.80;;;;;;;;;;5051583;28;20180;-85
2022/04/23 03:05:47;;;;;;;11.47;10.37;;;;;;;;;;5053152;28;20595;-83
2022/04/23 03:08:14;;;;;;;11.63;10.63;;;;;;;;;;5054638;28;20568;-85
2022/04/23 03:10:40;;;;;;;11.70;10.70;;;;;;;;;;5069798;28;21382;-85
2022/04/23 03:13:07;;;;;;;12.37;11.27;;;;;;;;;;5066778;28;20221;-85
2022/04/23 03:15:34;;;;;;;11.67;10.57;;;;;;;;;;5052159;28;20188;-84
2022/04/23 03:18:18;;;;;;;11.30;10.30;;;;;;;;;;5070025;28;20184;-85
2022/04/23 03:20:45;;;;;;;12.53;11.43;;;;;;;;;;5052163;28;20188;-86
2022/04/23 03:23:12;;;;;;;12.97;11.67;;;;;;;;;;5053044;28;20198;-85
2022/04/23 03:25:38;;;;;;;12.53;11.33;;;;;;;;;;5052688;28;20206;-85
2022/04/23 03:28:04;;;;;;;12.03;10.93;;;;;;;;;;5067737;28;20207;-84
2022/04/23 03:30:31;;;;;;;13.60;12.40;;;;;;;;;;5052432;28;20227;-85
2022/04/23 03:32:58;;;;;;;12.10;11.00;;;;;;;;;;5069717;28;20239;-82
2022/04/23 03:35:26;;;;;;;13.30;12.10;;;;;;;;;;5050964;28;20185;-85
2022/04/23 03:37:52;;;;;;;13.13;11.97;;;;;;;;;;5057278;28;20198;-85
2022/04/23 03:40:18;;;;;;;18.47;17.07;;;;;;;;;;5051597;28;20172;-82
2022/04/23 03:42:48;;;;;;;13.27;12.07;;;;;;;;;;5069544;28;20191;-84
2022/04/23 03:45:16;;;;;;;13.53;12.33;;;;;;;;;;5050908;28;20725;-84
2022/04/23 03:47:46;;;;;;;12.93;11.83;;;;;;;;;;5071242;28;20287;-85
2022/04/23 03:50:12;;;;;;;13.50;12.30;;;;;;;;;;5050946;28;20229;-84
2022/04/23 03:52:38;;;;;;;13.50;12.30;;;;;;;;;;5047667;28;20196;-84
2022/04/23 03:55:05;;;;;;;14.07;12.77;;;;;;;;;;5066312;28;20177;-84
2022/04/23 03:57:32;;;;;;;13.07;11.87;;;;;;;;;;5049036;28;20177;-85
2022/04/23 03:59:58;;;;;;;13.50;12.30;;;;;;;;;;5065496;28;20208;-84
2022/04/23 04:02:24;;;;;;;14.60;13.40;;;;;;;;;;5052096;28;20179;-85
2022/04/23 04:04:51;;;;;;;13.00;11.80;;;;;;;;;;5052468;28;20199;-85
2022/04/23 04:07:18;;;;;;;12.30;11.20;;;;;;;;;;5053367;28;20184;-85
2022/04/23 04:09:44;;;;;;;13.03;11.90;;;;;;;;;;5068269;28;20306;-84
2022/04/23 04:12:10;;;;;;;13.30;12.07;;;;;;;;;;5069069;28;20263;-85
2022/04/23 04:14:37;;;;;;;13.27;12.17;;;;;;;;;;5052001;28;20182;-85
2022/04/23 04:17:09;;;;;;;12.60;11.47;;;;;;;;;;5054325;28;21119;-85
2022/04/23 04:19:35;;;;;;;13.67;12.47;;;;;;;;;;5051036;28;20177;-85
2022/04/23 04:22:06;;;;;;;14.27;12.97;;;;;;;;;;5050871;28;20198;-85
2022/04/23 04:24:33;;;;;;;12.87;11.67;;;;;;;;;;5051600;28;20204;-85
2022/04/23 04:27:00;;;;;;;11.53;10.53;;;;;;;;;;5054330;28;20290;-84
2022/04/23 04:29:26;;;;;;;14.60;13.40;;;;;;;;;;5051056;28;20220;-84
2022/04/23 04:31:52;;;;;;;14.00;12.60;;;;;;;;;;5050155;28;20222;-84
2022/04/23 04:34:18;;;;;;;12.67;11.47;;;;;;;;;;5048363;28;20203;-83
2022/04/23 04:36:49;;;;;;;12.77;11.67;;;;;;;;;;5049930;28;20187;-83
2022/04/23 04:39:15;;;;;;;12.73;11.63;;;;;;;;;;5068450;28;20188;-85
2022/04/23 04:41:42;;;;;;;12.63;11.43;;;;;;;;;;5052713;28;20238;-84
2022/04/23 04:44:09;;;;;;;14.23;12.93;;;;;;;;;;5072022;28;20177;-85
2022/04/23 04:46:35;;;;;;;14.10;12.80;;;;;;;;;;5037489;28;20204;-86
2022/04/23 04:49:05;;;;;;;13.17;11.97;;;;;;;;;;5053643;28;20291;-84
2022/04/23 04:51:31;;;;;;;13.40;12.20;;;;;;;;;;5055657;28;20257;-84
2022/04/23 04:53:58;;;;;;;12.90;11.73;;;;;;;;;;5055712;28;20873;-82
2022/04/23 04:56:24;;;;;;;13.70;12.40;;;;;;;;;;5054036;28;20570;-82
2022/04/23 04:58:50;;;;;;;13.47;12.07;;;;;;;;;;5056114;28;20180;-86
2022/04/23 05:01:16;;;;;;;12.73;11.53;;;;;;;;;;5069101;28;20234;-84
2022/04/23 05:03:43;;;;;;;12.13;11.03;;;;;;;;;;5054311;28;20185;-85
2022/04/23 05:06:09;;;;;;;12.63;11.53;;;;;;;;;;5073555;28;20187;-84
2022/04/23 05:08:36;;;;;;;13.83;12.47;;;;;;;;;;5053247;28;20281;-84
2022/04/23 05:11:02;;;;;;;12.87;11.67;;;;;;;;;;5053920;28;20192;-84
2022/04/23 05:13:28;;;;;;;13.20;11.93;;;;;;;;;;5054200;28;20244;-85
2022/04/23 05:15:54;;;;;;;12.90;11.70;;;;;;;;;;5057058;28;20638;-85
2022/04/23 05:18:20;;;;;;;13.10;11.73;;;;;;;;;;5074019;28;20176;-85
2022/04/23 05:20:46;;;;;;;13.13;11.83;;;;;;;;;;5052049;28;20181;-84
2022/04/23 05:23:13;;;;;;;13.97;12.57;;;;;;;;;;5056699;28;20259;-83
2022/04/23 05:25:39;;;;;;;15.00;13.20;;;;;;;;;;5054386;28;20898;-86
2022/04/23 05:28:05;;;;;;;12.83;11.53;;;;;;;;;;5054862;28;20219;-83
2022/04/23 05:30:31;;;;;;;13.37;12.17;;;;;;;;;;5054407;28;20298;-84
2022/04/23 05:32:58;;;;;;;12.17;11.17;;;;;;;;;;5052219;28;20499;-85
2022/04/23 05:35:24;;;;;;;14.30;12.77;;;;;;;;;;5070122;28;20185;-85
2022/04/23 05:37:50;;;;;;;13.97;12.67;;;;;;;;;;5060253;28;20199;-84
2022/04/23 05:40:16;;;;;;;13.70;12.50;;;;;;;;;;5055591;28;20646;-85
2022/04/23 05:42:42;;;;;;;14.83;13.53;;;;;;;;;;5062210;28;20199;-85
2022/04/23 05:45:09;;;;;;;13.27;12.10;;;;;;;;;;5051402;28;20509;-83
2022/04/23 05:47:35;;;;;;;13.07;11.87;;;;;;;;;;5059671;28;20219;-83
2022/04/23 05:50:01;;;;;;;14.27;12.87;;;;;;;;;;5051539;28;20187;-85
2022/04/23 05:52:27;;;;;;;13.27;12.07;;;;;;;;;;5050868;28;20184;-85
2022/04/23 05:54:53;;;;;;;13.07;11.87;;;;;;;;;;5054601;28;20646;-86
2022/04/23 05:57:19;;;;;;;14.83;13.47;;;;;;;;;;5055381;28;20435;-86
2022/04/23 05:59:45;;;;;;;14.37;13.07;;;;;;;;;;5071571;28;20267;-85
2022/04/23 06:02:13;;;;;;;13.67;12.37;;;;;;;;;;5053888;28;20241;-85
2022/04/23 06:04:39;;;;;;;13.67;12.37;;;;;;;;;;5071629;28;20180;-86
2022/04/23 06:07:05;;;;;;;14.33;12.93;;;;;;;;;;5072911;28;20188;-86
2022/04/23 06:09:31;;;;;;;15.67;14.17;;;;;;;;;;5072761;28;20262;-86
2022/04/23 06:11:57;;;;;;;13.50;12.20;;;;;;;;;;5052136;28;20180;-84
2022/04/23 06:14:23;;;;;;;13.80;12.50;;;;;;;;;;5070626;28;20208;-85
2022/04/23 06:16:49;;;;;;;13.77;12.53;;;;;;;;;;5052012;28;20183;-85
2022/04/23 06:19:15;;;;;;;14.13;12.83;;;;;;;;;;5050655;28;20184;-87
2022/04/23 06:21:41;;;;;;;15.70;14.10;;;;;;;;;;5053481;28;20701;-86
2022/04/23 06:24:07;;;;;;;15.17;13.77;;;;;;;;;;5071343;28;20269;-86
2022/04/23 06:26:33;;;;;;;15.67;14.17;;;;;;;;;;5054695;28;20611;-83
2022/04/23 06:28:59;;;;;;;15.87;14.47;;;;;;;;;;5052328;28;20197;-85
2022/04/23 06:31:25;;;;;;;15.17;13.77;;;;;;;;;;5054639;28;20195;-85
2022/04/23 06:33:51;;;;;;;14.70;13.40;;;;;;;;;;5063380;28;20646;-86
2022/04/23 06:36:17;;;;;;;16.20;13.60;;;;;;;;;;5069394;28;20870;-85
2022/04/23 06:38:43;;;;;;;15.00;13.70;;;;;;;;;;5059146;28;20203;-86
2022/04/23 06:41:09;;;;;;;17.53;15.83;;;;;;;;;;5056032;28;20185;-84
2022/04/23 06:43:35;;;;;;;16.67;15.07;;;;;;;;;;5067406;28;20189;-86
2022/04/23 06:46:01;;;;;;;16.00;14.50;;;;;;;;;;5052172;28;20215;-86
2022/04/23 06:48:27;;;;;;;16.83;15.20;;;;;;;;;;5072524;28;20548;-85
2022/04/23 06:50:53;;;;;;;17.13;15.57;;;;;;;;;;5063433;28;20619;-85
2022/04/23 06:53:19;;;;;;;16.30;14.80;;;;;;;;;;5071062;28;20192;-86
2022/04/23 06:55:45;;;;;;;16.53;15.03;;;;;;;;;;5072359;28;20176;-85
2022/04/23 06:58:11;;;;;;;15.30;13.90;;;;;;;;;;5057117;28;21142;-85
2022/04/23 07:00:40;;;;;;;15.80;14.40;;;;;;;;;;5056621;28;20180;-86
2022/04/23 07:03:06;;;;;;;17.37;15.67;;;;;;;;;;5074058;28;20619;-86
2022/04/23 07:05:32;;;;;;;19.03;15.97;;;;;;;;;;5069779;28;20192;-84
2022/04/23 07:07:59;;;;;;;20.27;18.40;;;;;;;;;;5086989;28;20223;-86
2022/04/23 07:10:26;;;;;;;20.37;18.47;;;;;;;;;;5073551;28;20275;-85
2022/04/23 07:12:53;;;;;;;20.10;18.10;;;;;;;;;;5066742;28;20242;-86
2022/04/23 07:15:22;;;;;;;19.50;17.60;;;;;;;;;;5065159;28;20184;-83
2022/04/23 07:17:49;;;;;;;20.50;18.50;;;;;;;;;;5049529;28;20300;-84
2022/04/23 07:20:16;;;;;;;20.10;18.03;;;;;;;;;;5070832;28;20177;-85
2022/04/23 07:24:02;;;;;;;19.40;17.60;;;;;;;;;;5051187;28;21428;-85
2022/04/23 07:25:28;;;;;;;19.60;17.73;;;;;;;;;;5070931;28;20226;-87
2022/04/23 07:27:55;;;;;;;18.47;16.77;;;;;;;;;;5050986;28;20204;-87
2022/04/23 07:30:21;;;;;;;19.73;17.93;;;;;;;;;;5057322;28;20248;-85
2022/04/23 07:32:47;;;;;;;18.30;16.47;;;;;;;;;;5052379;28;20177;-86
2022/04/23 07:37:57;;;;;;;18.77;16.93;;;;;;;;;;5073293;28;20326;-84
2022/04/23 07:40:24;;;;;;;18.43;16.73;;;;;;;;;;5072868;28;20172;-85
2022/04/23 07:42:50;;;;;;;19.07;17.23;;;;;;;;;;5068602;28;20651;-84
2022/04/23 07:45:16;;;;;;;18.83;17.10;;;;;;;;;;5053225;28;20199;-87
2022/04/23 07:47:42;;;;;;;17.33;15.73;;;;;;;;;;5053164;28;20198;-85
2022/04/23 07:50:09;;;;;;;18.30;16.50;;;;;;;;;;5053312;28;20180;-84
2022/04/23 07:52:35;;;;;;;18.33;16.43;;;;;;;;;;5053902;28;20184;-85
2022/04/23 07:55:01;;;;;;;18.13;16.50;;;;;;;;;;5068422;28;20198;-86
2022/04/23 07:57:27;;;;;;;17.57;15.97;;;;;;;;;;5060092;28;20166;-85
2022/04/23 07:59:53;;;;;;;18.33;16.53;;;;;;;;;;5050053;28;20195;-84
2022/04/23 08:02:20;;;;;;;17.63;15.77;;;;;;;;;;5065534;28;20185;-84
2022/04/23 08:04:47;;;;;;;17.67;15.93;;;;;;;;;;5051620;28;20177;-82
2022/04/23 08:07:15;;;;;;;18.30;16.67;;;;;;;;;;5061873;28;20204;-83
2022/04/23 08:09:41;;;;;;;17.57;15.80;;;;;;;;;;5070608;28;20303;-82
2022/04/23 08:12:07;;;;;;;18.13;16.37;;;;;;;;;;5051659;28;20176;-83
2022/04/23 08:14:33;;;;;;;17.23;15.53;;;;;;;;;;5052266;28;20172;-82
2022/04/23 08:16:59;;;;;;;17.87;16.17;;;;;;;;;;5053927;28;20187;-82
2022/04/23 08:19:26;;;;;;;16.97;15.37;;;;;;;;;;5053185;28;20212;-81
2022/04/23 08:21:52;;;;;;;16.67;15.20;;;;;;;;;;5077607;28;20263;-83
2022/04/23 08:24:19;;;;;;;17.40;15.80;;;;;;;;;;5074703;28;20212;-84
2022/04/23 08:26:45;;;;;;;18.10;16.40;;;;;;;;;;5055883;28;20212;-84
2022/04/23 08:31:56;;;;;;;17.40;15.80;;;;;;;;;;5077104;28;20182;-81
2022/04/23 08:34:22;;;;;;;18.40;16.60;;;;;;;;;;5059411;28;20185;-84
2022/04/23 08:36:50;;;;;;;17.37;15.77;;;;;;;;;;5056937;28;20214;-84
2022/04/23 08:39:16;;;;;;;17.07;15.27;;;;;;;;;;5054109;28;20189;-83
2022/04/23 08:41:45;;;;;;;17.07;15.47;;;;;;;;;;5077810;28;20559;-84
2022/04/23 08:44:11;;;;;;;17.47;15.97;;;;;;;;;;5078714;28;20164;-80
2022/04/23 08:46:38;;;;;;;14.60;13.30;;;;;;;;;;5071465;28;20185;-83
2022/04/23 08:49:08;;;;;;;16.53;15.00;;;;;;;;;;5076861;28;20538;-84
2022/04/23 08:51:35;;;;;;;15.50;14.10;;;;;;;;;;5058790;28;20176;-83
2022/04/23 08:54:06;;;;;;;16.10;14.53;;;;;;;;;;5057844;28;20172;-84
2022/04/23 08:56:32;;;;;;;14.87;13.47;;;;;;;;;;5057817;28;20238;-83
2022/04/23 08:58:58;;;;;;;16.97;15.47;;;;;;;;;;5058513;28;20239;-86
2022/04/23 09:01:24;;;;;;;15.60;14.30;;;;;;;;;;5058842;28;20184;-84
2022/04/23 09:03:50;;;;;;;16.33;14.63;;;;;;;;;;5058771;28;20183;-84
2022/04/23 09:06:16;;;;;;;15.93;14.40;;;;;;;;;;5062006;28;20186;-83
2022/04/23 09:09:01;;;;;;;17.20;15.60;;;;;;;;;;5078056;28;20196;-84
2022/04/23 09:11:37;;;;;;;15.97;14.47;;;;;;;;;;5077833;28;20642;-83
2022/04/23 09:14:07;;;;;;;16.17;14.67;;;;;;;;;;5073477;28;20173;-83
2022/04/23 09:25:08;;;;;;;15.37;13.93;;;;;;;;;;5077396;28;20227;-85
2022/04/23 09:27:34;;;;;;;15.80;14.30;;;;;;;;;;5091728;28;20179;-84
2022/04/23 09:30:07;;;;;;;15.33;14.00;;;;;;;;;;5078006;28;20223;-81
2022/04/23 09:32:34;;;;;;;17.07;14.10;;;;;;;;;;5077097;28;20287;-81
2022/04/23 09:35:04;;;;;;;14.57;13.17;;;;;;;;;;5076848;28;20184;-82
2022/04/23 09:38:11;;;;;;;13.63;12.33;;;;;;;;;;5075016;28;20207;-83
2022/04/23 09:40:23;;;;;;;13.80;12.47;;;;;;;;;;5076087;28;20632;-80
2022/04/23 09:42:56;;;;;;;14.47;13.07;;;;;;;;;;5076661;28;20176;-80
2022/04/23 09:45:26;;;;;;;14.07;12.80;;;;;;;;;;5058629;28;20181;-83
2022/04/23 09:47:53;;;;;;;13.57;12.27;;;;;;;;;;5073188;28;20541;-83
2022/04/23 09:50:19;;;;;;;12.60;11.53;;;;;;;;;;5057955;28;20179;-87
2022/04/23 09:52:49;;;;;;;12.47;11.33;;;;;;;;;;5073466;28;20186;-86
2022/04/23 09:55:16;;;;;;;11.00;10.03;;;;;;;;;;5078237;28;20172;-83
2022/04/23 09:57:45;;;;;;;11.60;10.60;;;;;;;;;;5077521;28;20183;-85
2022/04/23 10:00:11;;;;;;;10.77;9.87;;;;;;;;;;5095990;28;20211;-85
2022/04/23 10:02:38;;;;;;;11.20;10.20;;;;;;;;;;5077165;28;20247;-83
2022/04/23 10:05:04;;;;;;;11.23;10.27;;;;;;;;;;5077612;28;20187;-83
2022/04/23 10:07:30;;;;;;;11.63;10.57;;;;;;;;;;5063859;28;20192;-84
2022/04/23 10:09:58;;;;;;;10.73;9.83;;;;;;;;;;5037521;28;20193;-85
2022/04/23 10:12:25;;;;;;;11.13;10.23;;;;;;;;;;5062245;28;20184;-84
2022/04/23 10:14:56;;;;;;;10.80;9.90;;;;;;;;;;5063271;28;20180;-85
2022/04/23 10:17:23;;;;;;;10.60;9.70;;;;;;;;;;5086163;28;20172;-85
2022/04/23 10:19:50;;;;;;;10.67;9.70;;;;;;;;;;5093189;28;20172;-87
2022/04/23 10:22:34;;;;;;;9.73;8.83;;;;;;;;;;5090582;28;20184;-86
2022/04/23 10:25:22;;;;;;;9.87;9.03;;;;;;;;;;5054963;28;20172;-83
2022/04/23 10:27:49;;;;;;;9.87;9.07;;;;;;;;;;5070441;28;20319;-84
2022/04/23 10:30:15;;;;;;;9.63;8.83;;;;;;;;;;5074517;28;20689;-87
2022/04/23 10:32:43;;;;;;;9.57;8.63;;;;;;;;;;5074565;28;21036;-83
2022/04/23 10:35:18;;;;;;;9.33;8.53;;;;;;;;;;5092591;28;20799;-86
2022/04/23 10:37:46;;;;;;;8.57;7.87;;;;;;;;;;5075667;28;20175;-84
2022/04/23 10:40:12;;;;;;;8.77;8.07;;;;;;;;;;5056457;28;20205;-83
2022/04/23 10:42:39;;;;;;;10.57;9.37;;;;;;;;;;5071355;28;20548;-82
2022/04/23 10:45:06;;;;;;;9.60;8.80;;;;;;;;;;5077598;28;20194;-84
2022/04/23 10:47:39;;;;;;;9.67;8.87;;;;;;;;;;5075156;28;20296;-82
2022/04/23 10:50:19;;;;;;;8.60;7.90;;;;;;;;;;5100026;28;20163;-84
2022/04/23 10:52:46;;;;;;;8.73;7.97;;;;;;;;;;5065938;28;20180;-84
2022/04/23 10:55:12;;;;;;;8.13;7.43;;;;;;;;;;5079870;28;20191;-83
2022/04/23 10:57:39;;;;;;;9.13;8.23;;;;;;;;;;5077366;28;20275;-84
2022/04/23 11:00:12;;;;;;;8.50;7.80;;;;;;;;;;5096870;28;20230;-86
2022/04/23 11:02:39;;;;;;;8.70;8.00;;;;;;;;;;5077182;28;20649;-85
2022/04/23 11:13:49;;;;;;;7.80;7.20;;;;;;;;;;5075087;28;20169;-86
2022/04/23 11:16:16;;;;;;;8.47;7.77;;;;;;;;;;5072561;28;20267;-87
2022/04/23 11:18:43;;;;;;;8.70;7.90;;;;;;;;;;5093943;28;20218;-86
2022/04/23 11:21:10;;;;;;;8.20;7.47;;;;;;;;;;5073135;28;20274;-84
2022/04/23 11:23:37;;;;;;;8.40;7.77;;;;;;;;;;5077086;28;20252;-83
2022/04/23 11:26:04;;;;;;;8.60;7.90;;;;;;;;;;5076587;28;20232;-83
2022/04/23 11:28:30;;;;;;;7.87;7.20;;;;;;;;;;5076104;28;20215;-84
2022/04/23 11:30:57;;;;;;;8.57;7.87;;;;;;;;;;5072821;28;20208;-83
2022/04/23 11:33:23;;;;;;;7.97;7.37;;;;;;;;;;5055245;28;20176;-84
2022/04/23 11:35:49;;;;;;;7.47;6.87;;;;;;;;;;5055516;28;20173;-83
2022/04/23 11:38:19;;;;;;;8.00;7.20;;;;;;;;;;5071972;28;20184;-84
2022/04/23 11:40:45;;;;;;;7.40;6.80;;;;;;;;;;5072197;28;20280;-86
2022/04/23 11:43:13;;;;;;;8.23;7.53;;;;;;;;;;5055963;28;20176;-85
2022/04/23 11:45:47;;;;;;;7.93;7.27;;;;;;;;;;5055975;28;20614;-84
2022/04/23 11:48:13;;;;;;;7.47;6.87;;;;;;;;;;5055415;28;20203;-86
2022/04/23 11:50:39;;;;;;;8.27;7.57;;;;;;;;;;5056071;28;20638;-85
2022/04/23 11:53:06;;;;;;;8.30;7.70;;;;;;;;;;5084609;28;20176;-87
2022/04/23 11:55:32;;;;;;;8.20;7.40;;;;;;;;;;5077833;28;20579;-83
2022/04/23 11:57:59;;;;;;;10.67;9.67;;;;;;;;;;5062452;28;20180;-84
2022/04/23 12:00:26;;;;;;;7.70;7.00;;;;;;;;;;5078609;28;20213;-84
2022/04/23 12:02:53;;;;;;;7.63;6.97;;;;;;;;;;5059595;28;20214;-82
2022/04/23 12:05:28;;;;;;;8.00;7.30;;;;;;;;;;5078951;28;20188;-82
2022/04/23 12:07:54;;;;;;;8.47;7.77;;;;;;;;;;5076043;28;20200;-83
2022/04/23 12:10:24;;;;;;;8.33;7.73;;;;;;;;;;5056446;28;20173;-84
2022/04/23 12:12:51;;;;;;;8.20;7.50;;;;;;;;;;5089440;28;20223;-82
2022/04/23 12:15:17;;;;;;;8.37;7.67;;;;;;;;;;5065244;28;20311;-85
2022/04/23 12:17:46;;;;;;;9.00;8.30;;;;;;;;;;5063850;28;20188;-86
2022/04/23 12:20:14;;;;;;;13.00;12.10;;;;;;;;;;5078250;28;20168;-86
2022/04/23 12:22:41;;;;;;;9.43;8.63;;;;;;;;;;5079481;28;20191;-85
2022/04/23 12:25:16;;;;;;;8.00;7.40;;;;;;;;;;5078862;28;20179;-84
2022/04/23 12:27:55;;;;;;;9.27;8.47;;;;;;;;;;5097350;28;20246;-85
2022/04/23 12:41:41;;;;;;;9.37;8.57;;;;;;;;;;5078480;28;20296;-85
2022/04/23 12:44:17;;;;;;;9.23;8.43;;;;;;;;;;5058836;28;20221;-85
2022/04/23 12:46:53;;;;;;;10.57;9.47;;;;;;;;;;5077394;28;20168;-85
2022/04/23 12:49:20;;;;;;;9.30;8.50;;;;;;;;;;5058132;28;20272;-85
2022/04/23 12:51:54;;;;;;;9.23;8.43;;;;;;;;;;5059229;28;20608;-86
2022/04/23 12:54:23;;;;;;;10.20;9.33;;;;;;;;;;5075437;28;20205;-86
2022/04/23 12:56:50;;;;;;;9.37;8.57;;;;;;;;;;5079906;28;20306;-84
2022/04/23 12:59:16;;;;;;;9.07;8.27;;;;;;;;;;5065901;28;20207;-86
2022/04/23 13:01:42;;;;;;;8.73;8.03;;;;;;;;;;5065842;28;20188;-85
2022/04/23 13:04:11;;;;;;;10.67;9.77;;;;;;;;;;5078429;28;20695;-85
2022/04/23 13:09:22;;;;;;;9.13;8.43;;;;;;;;;;5089740;28;20521;-86
2022/04/23 13:11:48;;;;;;;9.00;8.23;;;;;;;;;;5089734;28;20174;-86
2022/04/23 13:14:15;;;;;;;9.90;9.00;;;;;;;;;;5056227;28;20177;-83
2022/04/23 13:16:43;;;;;;;9.07;8.27;;;;;;;;;;5079275;28;20728;-87
2022/04/23 13:19:09;;;;;;;9.63;8.83;;;;;;;;;;5096758;28;20659;-85
2022/04/23 13:21:36;;;;;;;9.43;8.30;;;;;;;;;;5066675;28;20189;-86
2022/04/23 13:24:03;;;;;;;8.80;8.10;;;;;;;;;;5057315;28;20205;-85
2022/04/23 13:26:30;;;;;;;8.77;7.97;;;;;;;;;;5068649;28;20204;-86
2022/04/23 13:28:56;;;;;;;10.00;9.10;;;;;;;;;;5074733;28;20276;-86
2022/04/23 13:31:22;;;;;;;9.17;8.43;;;;;;;;;;5058019;28;20181;-86
2022/04/23 13:33:48;;;;;;;8.67;7.97;;;;;;;;;;5073888;28;20180;-86
2022/04/23 13:36:15;;;;;;;8.93;8.13;;;;;;;;;;5073576;28;20185;-84
2022/04/23 13:38:41;;;;;;;9.30;8.50;;;;;;;;;;5058536;28;20231;-86
2022/04/23 13:41:11;;;;;;;8.83;8.13;;;;;;;;;;5057528;28;20215;-85
2022/04/23 13:43:37;;;;;;;9.43;8.63;;;;;;;;;;5057765;28;20694;-85
2022/04/23 13:46:03;;;;;;;9.43;8.63;;;;;;;;;;5057893;28;20173;-85
2022/04/23 13:48:29;;;;;;;7.90;7.13;;;;;;;;;;5058130;28;20209;-85
2022/04/23 13:50:56;;;;;;;9.33;8.53;;;;;;;;;;5057432;28;20720;-86
2022/04/23 13:53:22;;;;;;;8.70;8.00;;;;;;;;;;5057224;28;20186;-86
2022/04/23 13:55:48;;;;;;;8.97;8.27;;;;;;;;;;5056098;28;20196;-86
2022/04/23 13:58:14;;;;;;;9.23;8.43;;;;;;;;;;5076803;28;20192;-86
2022/04/23 14:00:40;;;;;;;9.17;8.37;;;;;;;;;;5057777;28;20185;-85
2022/04/23 14:11:20;;;;;;;9.87;9.07;;;;;;;;;;5088812;28;20241;-87
2022/04/23 14:13:46;;;;;;;10.60;9.60;;;;;;;;;;5060427;28;20177;-87
2022/04/23 14:16:13;;;;;;;9.27;8.40;;;;;;;;;;5057734;28;20181;-85
2022/04/23 14:18:39;;;;;;;10.90;9.90;;;;;;;;;;5057766;28;20181;-85
2022/04/23 14:21:05;;;;;;;10.90;9.97;;;;;;;;;;5076181;28;20580;-85
2022/04/23 14:23:31;;;;;;;8.83;8.13;;;;;;;;;;5074293;28;20292;-87
2022/04/23 14:25:57;;;;;;;10.17;9.10;;;;;;;;;;5075295;28;20192;-86
2022/04/23 14:28:23;;;;;;;9.00;8.30;;;;;;;;;;5074527;28;20662;-85
2022/04/23 14:30:50;;;;;;;9.80;8.90;;;;;;;;;;5057595;28;20209;-85
2022/04/23 14:33:16;;;;;;;10.90;10.00;;;;;;;;;;5072866;28;20239;-87
2022/04/23 14:35:42;;;;;;;10.70;9.60;;;;;;;;;;5074671;28;20538;-86
2022/04/23 14:38:08;;;;;;;10.10;9.20;;;;;;;;;;5093795;28;20195;-87
2022/04/23 14:40:34;;;;;;;9.90;9.00;;;;;;;;;;5065061;28;20186;-87
2022/04/23 14:43:01;;;;;;;11.30;10.20;;;;;;;;;;5063327;28;20204;-85
2022/04/23 14:45:30;;;;;;;9.80;8.67;;;;;;;;;;5056367;28;20580;-86
2022/04/23 14:47:56;;;;;;;10.20;9.30;;;;;;;;;;5069305;28;20196;-86
2022/04/23 14:50:22;;;;;;;10.27;9.20;;;;;;;;;;5095543;28;20174;-85
2022/04/23 14:55:33;;;;;;;9.63;8.63;;;;;;;;;;5075868;28;20165;-86
2022/04/23 14:57:59;;;;;;;9.90;8.90;;;;;;;;;;5061227;28;20175;-86
2022/04/23 15:00:25;;;;;;;10.37;9.37;;;;;;;;;;5057185;28;20293;-86
2022/04/23 15:02:54;;;;;;;9.70;8.90;;;;;;;;;;5072064;28;20190;-84
2022/04/23 15:05:20;;;;;;;9.33;8.53;;;;;;;;;;5073645;28;20188;-85
2022/04/23 15:07:46;;;;;;;10.37;9.47;;;;;;;;;;5072668;28;20192;-86
2022/04/23 15:10:12;;;;;;;9.07;8.27;;;;;;;;;;5094221;28;20200;-85
2022/04/23 15:12:38;;;;;;;9.77;9.07;;;;;;;;;;5070950;28;20195;-86
2022/04/23 15:15:06;;;;;;;9.90;9.10;;;;;;;;;;5073851;28;20375;-87
2022/04/23 15:17:32;;;;;;;9.70;8.90;;;;;;;;;;5065681;28;20196;-85
2022/04/23 15:19:58;;;;;;;10.35;9.55;;;;;;;;;;5072688;28;20391;-85